Time;durP1;ratioP1;P1;durP2;ratioP2;P2;SDS_P1;SDS_P2;PMS_P1;PMS_P2;Temp;Humidity;BMP_temperature;BMP_pressure;BME280_temperature;BME280_humidity;BME280_pressure;Samples;Min_cycle;Max_cycle;Signal;HPM_P1;HPM_P2
2023/09/09 00:01:00;;;;;;;9.07;5.57;;;;;;;17.10;100.00;100772.81;5590147;31;34753;-66
2023/09/09 00:04:04;;;;;;;8.40;6.12;;;;;;;17.16;100.00;100777.38;5590299;31;33838;-65
2023/09/09 00:07:11;;;;;;;9.98;5.95;;;;;;;17.15;100.00;100773.03;5590189;31;33873;-65
2023/09/09 00:10:14;;;;;;;11.00;6.20;;;;;;;17.13;100.00;100763.56;5590039;31;34787;-66
2023/09/09 00:13:17;;;;;;;10.25;6.18;;;;;;;17.05;100.00;100771.75;5590086;31;34665;-65
2023/09/09 00:16:20;;;;;;;9.32;5.80;;;;;;;17.07;100.00;100767.03;5590248;31;34484;-66
2023/09/09 00:19:24;;;;;;;12.75;5.75;;;;;;;17.09;100.00;100773.03;5590123;31;33891;-65
2023/09/09 00:22:27;;;;;;;8.68;6.15;;;;;;;17.07;100.00;100769.72;5590064;31;34522;-65
2023/09/09 00:25:30;;;;;;;10.93;5.93;;;;;;;17.12;100.00;100765.41;5590105;31;34014;-65
2023/09/09 00:28:33;;;;;;;12.15;6.57;;;;;;;17.10;100.00;100764.75;5590304;31;34151;-66
2023/09/09 00:31:36;;;;;;;10.23;6.20;;;;;;;16.99;100.00;100769.91;5589668;31;34496;-65
2023/09/09 00:34:39;;;;;;;8.60;6.25;;;;;;;16.95;100.00;100767.59;5589136;31;33828;-65
2023/09/09 00:37:42;;;;;;;11.10;6.28;;;;;;;16.92;100.00;100772.53;5589504;31;35253;-66
2023/09/09 00:41:09;;;;;;;10.10;6.22;;;;;;;16.89;100.00;100770.25;5589654;31;34047;-66
2023/09/09 00:44:12;;;;;;;13.90;6.30;;;;;;;16.86;100.00;100770.66;5589531;31;33834;-67
2023/09/09 00:47:17;;;;;;;13.73;6.32;;;;;;;16.79;100.00;100770.62;5589042;31;34671;-66
2023/09/09 00:50:20;;;;;;;9.98;6.47;;;;;;;16.69;100.00;100772.84;5589114;31;34013;-66
2023/09/09 00:53:24;;;;;;;7.93;5.90;;;;;;;16.63;100.00;100762.91;5589074;31;33874;-66
2023/09/09 00:56:27;;;;;;;10.55;6.07;;;;;;;16.56;100.00;100770.03;5589685;31;34564;-66
2023/09/09 00:59:30;;;;;;;10.68;6.12;;;;;;;16.60;100.00;100767.84;5589016;31;34082;-66
2023/09/09 01:02:33;;;;;;;10.73;6.00;;;;;;;16.52;100.00;100769.59;5589795;31;33737;-66
2023/09/09 01:05:38;;;;;;;10.73;5.68;;;;;;;16.50;100.00;100776.19;5589822;31;35336;-66
2023/09/09 01:08:41;;;;;;;9.80;5.95;;;;;;;16.44;100.00;100776.97;5589717;31;34589;-66
2023/09/09 01:11:44;;;;;;;9.38;6.28;;;;;;;16.44;100.00;100771.63;5589706;31;34302;-66
2023/09/09 01:14:46;;;;;;;14.80;6.20;;;;;;;16.43;100.00;100767.28;5589810;31;33749;-66
2023/09/09 01:17:52;;;;;;;11.27;6.43;;;;;;;16.42;100.00;100770.97;5588835;31;34006;-66
2023/09/09 01:21:04;;;;;;;8.65;5.75;;;;;;;16.38;100.00;100756.34;5589683;31;33915;-66
2023/09/09 01:24:07;;;;;;;7.37;5.90;;;;;;;16.33;100.00;100761.44;5589645;31;33814;-66
2023/09/09 01:27:10;;;;;;;13.65;5.80;;;;;;;16.26;100.00;100761.41;5589607;31;34512;-66
2023/09/09 01:30:15;;;;;;;10.45;5.97;;;;;;;16.27;100.00;100767.56;5589781;31;34491;-66
2023/09/09 01:33:18;;;;;;;13.77;6.10;;;;;;;16.24;100.00;100760.78;5589457;31;33774;-66
2023/09/09 01:36:20;;;;;;;8.77;6.10;;;;;;;16.18;100.00;100761.56;5589391;31;33821;-66
2023/09/09 01:39:24;;;;;;;11.10;6.43;;;;;;;16.13;100.00;100757.78;5589555;31;34040;-66
2023/09/09 01:42:27;;;;;;;9.68;6.10;;;;;;;16.11;100.00;100768.72;5589691;31;34048;-66
2023/09/09 01:45:30;;;;;;;9.00;6.22;;;;;;;16.13;100.00;100761.31;5589278;31;33837;-66
2023/09/09 01:48:33;;;;;;;9.00;5.60;;;;;;;16.13;100.00;100761.31;5589332;31;33960;-65
2023/09/09 01:51:35;;;;;;;9.32;5.65;;;;;;;16.11;100.00;100758.00;5589616;31;33801;-66
2023/09/09 01:54:38;;;;;;;8.13;5.97;;;;;;;16.10;100.00;100756.34;5589204;31;33945;-66
2023/09/09 01:57:41;;;;;;;9.50;6.25;;;;;;;16.15;100.00;100758.44;5589307;31;34503;-66
2023/09/09 02:00:44;;;;;;;11.73;6.07;;;;;;;16.15;100.00;100758.44;5589382;31;33828;-66
2023/09/09 02:03:47;;;;;;;9.55;6.00;;;;;;;16.05;100.00;100762.28;5589312;31;33745;-66
2023/09/09 02:06:50;;;;;;;9.13;6.03;;;;;;;16.01;100.00;100768.22;5587435;31;34521;-66
2023/09/09 02:09:53;;;;;;;10.13;6.10;;;;;;;16.03;100.00;100766.16;5589092;31;33772;-66
2023/09/09 02:12:56;;;;;;;9.10;6.10;;;;;;;15.99;100.00;100770.25;5588011;31;33986;-66
2023/09/09 02:16:07;;;;;;;6.60;5.82;;;;;;;15.98;100.00;100758.72;5588988;31;34058;-66
2023/09/09 02:19:10;;;;;;;11.88;5.85;;;;;;;16.00;100.00;100766.56;5588915;31;34597;-66
2023/09/09 02:22:13;;;;;;;7.75;6.00;;;;;;;16.02;100.00;100759.97;5588843;31;33810;-66
2023/09/09 02:25:16;;;;;;;10.55;5.93;;;;;;;16.01;100.00;100758.34;5588794;31;33915;-66
2023/09/09 02:28:19;;;;;;;10.43;6.37;;;;;;;15.97;100.00;100764.28;5589133;31;33240;-66
2023/09/09 02:31:22;;;;;;;8.00;5.93;;;;;;;15.98;100.00;100760.56;5588641;31;33810;-66
2023/09/09 02:34:25;;;;;;;8.80;6.43;;;;;;;15.93;100.00;100753.13;5588726;31;33890;-66
2023/09/09 02:37:28;;;;;;;9.10;6.22;;;;;;;15.92;100.00;100754.16;5588557;31;34968;-66
2023/09/09 02:40:30;;;;;;;7.47;5.70;;;;;;;15.89;100.00;100759.06;5588472;31;34566;-66
2023/09/09 02:43:33;;;;;;;10.23;6.10;;;;;;;15.79;100.00;100761.22;5587634;31;34704;-66
2023/09/09 02:46:38;;;;;;;10.55;6.30;;;;;;;15.71;100.00;100758.69;5588317;31;33821;-66
2023/09/09 02:49:43;;;;;;;11.93;6.50;;;;;;;15.88;100.00;100758.22;5588264;31;33908;-66
2023/09/09 02:52:50;;;;;;;11.55;6.18;;;;;;;15.83;100.00;100759.84;5588198;31;33921;-66
2023/09/09 02:55:53;;;;;;;11.38;6.53;;;;;;;15.85;100.00;100753.25;5588217;31;33820;-66
2023/09/09 02:58:56;;;;;;;9.82;6.35;;;;;;;15.81;100.00;100754.69;5588217;31;33956;-66
2023/09/09 03:02:00;;;;;;;10.85;6.70;;;;;;;15.76;100.00;100756.28;5588129;31;35003;-66
2023/09/09 03:05:03;;;;;;;9.05;6.40;;;;;;;15.70;100.00;100751.69;5588080;31;34918;-66
2023/09/09 03:08:06;;;;;;;10.70;6.43;;;;;;;15.62;100.00;100755.31;5588009;31;35406;-66
2023/09/09 03:11:09;;;;;;;12.55;6.47;;;;;;;15.65;100.00;100758.44;5587143;31;34611;-66
2023/09/09 03:14:12;;;;;;;11.10;6.50;;;;;;;15.68;100.00;100757.25;5587976;31;35573;-67
2023/09/09 03:17:17;;;;;;;9.00;6.30;;;;;;;15.60;100.00;100746.66;5589040;31;33991;-66
2023/09/09 03:20:20;;;;;;;9.93;6.32;;;;;;;15.52;100.00;100744.94;5591093;31;33823;-66
2023/09/09 03:23:26;;;;;;;7.90;6.07;;;;;;;15.48;100.00;100745.50;5590642;31;33785;-66
2023/09/09 03:26:32;;;;;;;10.63;6.72;;;;;;;15.51;100.00;100740.59;5590613;31;33987;-66
2023/09/09 03:29:34;;;;;;;9.98;6.45;;;;;;;15.52;100.00;100744.12;5590565;31;34487;-66
2023/09/09 03:32:38;;;;;;;12.65;6.50;;;;;;;15.53;100.00;100743.09;5590481;31;33895;-66
2023/09/09 03:35:40;;;;;;;13.10;6.53;;;;;;;15.49;100.00;100731.91;5590579;31;33737;-66
2023/09/09 03:38:43;;;;;;;9.85;5.97;;;;;;;15.40;100.00;100733.06;5590539;31;33818;-66
2023/09/09 03:41:46;;;;;;;9.02;6.12;;;;;;;15.32;100.00;100740.38;5590468;31;33808;-66
2023/09/09 03:44:50;;;;;;;7.47;5.85;;;;;;;15.33;100.00;100736.69;5590288;31;34099;-66
2023/09/09 03:47:52;;;;;;;11.00;6.53;;;;;;;15.28;100.00;100731.09;5590737;31;34506;-66
2023/09/09 03:51:02;;;;;;;8.45;6.45;;;;;;;15.29;100.00;100740.75;5590812;31;34423;-66
2023/09/09 03:54:06;;;;;;;8.32;6.80;;;;;;;15.21;100.00;100734.50;5590141;31;35482;-66
2023/09/09 03:57:09;;;;;;;9.05;6.25;;;;;;;15.14;100.00;100738.13;5590260;31;33834;-66
2023/09/09 04:00:12;;;;;;;13.00;6.68;;;;;;;15.06;100.00;100739.06;5590274;31;34786;-66
2023/09/09 04:03:15;;;;;;;11.95;6.07;;;;;;;15.05;100.00;100740.09;5590259;31;33907;-66
2023/09/09 04:06:20;;;;;;;9.43;6.60;;;;;;;15.15;100.00;100743.28;5590507;31;33936;-67
2023/09/09 04:09:26;;;;;;;10.32;6.37;;;;;;;15.18;100.00;100739.41;5590205;31;33933;-67
2023/09/09 04:12:29;;;;;;;8.65;6.30;;;;;;;15.19;100.00;100743.75;5590265;31;33838;-66
2023/09/09 04:15:32;;;;;;;12.63;6.90;;;;;;;15.06;100.00;100744.41;5590040;31;34127;-66
2023/09/09 04:18:35;;;;;;;10.27;6.78;;;;;;;15.07;100.00;100747.91;5589967;31;34031;-66
2023/09/09 04:21:41;;;;;;;7.78;6.22;;;;;;;15.18;100.00;100744.75;5590110;31;34274;-66
2023/09/09 04:24:44;;;;;;;12.30;6.70;;;;;;;15.27;100.00;100753.47;5590069;31;34059;-66
2023/09/09 04:27:47;;;;;;;9.52;6.50;;;;;;;15.27;100.00;100753.47;5589167;31;34507;-66
2023/09/09 04:30:50;;;;;;;9.93;6.97;;;;;;;15.30;100.00;100755.78;5590085;31;33837;-66
2023/09/09 04:33:53;;;;;;;9.25;6.35;;;;;;;15.36;100.00;100758.50;5590095;31;33786;-66
2023/09/09 04:36:56;;;;;;;10.98;6.43;;;;;;;15.32;100.00;100754.56;5590035;31;33787;-66
2023/09/09 04:39:59;;;;;;;7.95;6.35;;;;;;;15.43;100.00;100761.28;5590029;31;34066;-66
2023/09/09 04:43:02;;;;;;;10.18;6.35;;;;;;;15.37;100.00;100760.19;5590120;31;33839;-66
2023/09/09 04:46:06;;;;;;;8.27;5.53;;;;;;;15.34;100.00;100752.56;5589703;31;34883;-66
2023/09/09 04:49:09;;;;;;;11.32;6.80;;;;;;;15.35;100.00;100753.34;5589988;31;34126;-66
2023/09/09 04:52:12;;;;;;;8.75;6.12;;;;;;;15.39;100.00;100758.16;5589827;31;33909;-67
2023/09/09 04:55:15;;;;;;;9.15;6.50;;;;;;;15.42;100.00;100763.13;5589754;31;34680;-66
2023/09/09 04:58:18;;;;;;;11.57;6.05;;;;;;;15.45;100.00;100759.22;5589892;31;33941;-66
2023/09/09 05:01:21;;;;;;;7.90;6.07;;;;;;;15.48;100.00;100769.56;5590120;31;33906;-66
2023/09/09 05:04:24;;;;;;;10.45;6.32;;;;;;;15.55;100.00;100771.28;5589826;31;33896;-66
2023/09/09 05:07:29;;;;;;;7.65;5.82;;;;;;;15.59;100.00;100769.88;5590067;31;34509;-66
2023/09/09 05:10:34;;;;;;;12.15;6.57;;;;;;;15.70;100.00;100773.06;5589692;31;33943;-66
2023/09/09 05:13:37;;;;;;;11.57;6.50;;;;;;;15.79;100.00;100777.28;5589552;31;33968;-65
2023/09/09 05:16:41;;;;;;;9.23;6.05;;;;;;;15.89;100.00;100783.97;5589455;31;34788;-66
2023/09/09 05:19:44;;;;;;;10.15;6.43;;;;;;;15.99;100.00;100783.63;5589592;31;34242;-66
2023/09/09 05:22:47;;;;;;;10.40;6.07;;;;;;;16.12;100.00;100785.59;5589571;31;34621;-66
2023/09/09 05:25:50;;;;;;;8.60;6.12;;;;;;;16.15;100.00;100786.03;5589579;31;34513;-66
2023/09/09 05:28:53;;;;;;;12.63;6.53;;;;;;;16.27;100.00;100791.66;5589477;31;34565;-66
2023/09/09 05:31:56;;;;;;;10.73;6.12;;;;;;;16.31;100.00;100787.59;5589424;31;34441;-66
2023/09/09 05:34:59;;;;;;;8.48;6.20;;;;;;;16.43;100.00;100789.53;5589177;31;34000;-67
2023/09/09 05:38:02;;;;;;;7.85;5.90;;;;;;;16.51;100.00;100791.22;5589701;31;34546;-66
2023/09/09 05:41:05;;;;;;;9.13;6.28;;;;;;;16.59;100.00;100784.94;5589074;31;34572;-66
2023/09/09 05:44:08;;;;;;;12.95;6.37;;;;;;;16.68;100.00;100783.75;5588783;31;33872;-66
2023/09/09 05:47:11;;;;;;;10.85;6.07;;;;;;;16.78;100.00;100785.06;5589086;31;33980;-66
2023/09/09 05:50:14;;;;;;;10.45;6.15;;;;;;;16.88;100.00;100785.50;5589170;31;34515;-66
2023/09/09 05:53:17;;;;;;;9.88;6.10;;;;;;;17.09;100.00;100786.44;5589342;31;34476;-66
2023/09/09 05:56:21;;;;;;;9.38;5.45;;;;;;;17.08;100.00;100790.13;5589284;31;33759;-66
2023/09/09 05:59:24;;;;;;;7.45;5.60;;;;;;;17.17;100.00;100787.09;5589125;31;33853;-66
2023/09/09 06:02:27;;;;;;;8.35;5.12;;;;;;;17.39;100.00;100790.44;5588327;31;33800;-66
2023/09/09 06:05:31;;;;;;;11.80;5.80;;;;;;;17.53;100.00;100788.59;5588769;31;33813;-66
2023/09/09 06:08:33;;;;;;;10.50;5.80;;;;;;;17.62;100.00;100792.81;5588985;31;33845;-66
2023/09/09 06:11:37;;;;;;;9.60;6.03;;;;;;;17.74;100.00;100791.16;5588226;31;34474;-67
2023/09/09 06:14:39;;;;;;;9.43;5.80;;;;;;;17.84;100.00;100786.22;5588752;31;33830;-66
2023/09/09 06:17:43;;;;;;;8.57;5.35;;;;;;;18.02;100.00;100788.28;5588815;31;33979;-67
2023/09/09 06:20:52;;;;;;;9.65;5.43;;;;;;;18.18;100.00;100788.72;5588884;31;34592;-66
2023/09/09 06:23:55;;;;;;;9.00;5.45;;;;;;;18.21;100.00;100785.59;5589190;31;33868;-66
2023/09/09 06:26:58;;;;;;;10.38;5.50;;;;;;;18.40;100.00;100791.16;5588709;31;33920;-67
2023/09/09 06:30:01;;;;;;;10.45;5.65;;;;;;;18.68;100.00;100783.72;5588645;31;34595;-67
2023/09/09 06:33:04;;;;;;;9.00;5.47;;;;;;;19.12;100.00;100797.19;5588572;31;33868;-66
2023/09/09 06:36:07;;;;;;;10.15;4.85;;;;;;;19.86;100.00;100799.28;5587611;31;33736;-67
2023/09/09 06:39:10;;;;;;;11.18;5.78;;;;;;;20.84;100.00;100802.16;5588309;31;33708;-67
2023/09/09 06:42:14;;;;;;;12.65;5.28;;;;;;;21.41;100.00;100814.34;5588447;31;33847;-67
2023/09/09 06:45:21;;;;;;;6.68;4.80;;;;;;;22.24;100.00;100818.94;5588185;31;33972;-67
2023/09/09 06:48:24;;;;;;;9.70;4.50;;;;;;;23.12;100.00;100818.81;5588335;31;33631;-67
2023/09/09 06:51:27;;;;;;;6.68;4.72;;;;;;;22.85;97.58;100815.81;5588978;31;34320;-67
2023/09/09 06:54:30;;;;;;;8.05;4.37;;;;;;;22.96;94.91;100823.91;5590855;31;33273;-67
2023/09/09 06:57:32;;;;;;;9.52;4.72;;;;;;;23.85;90.15;100823.50;5590774;31;33930;-67
2023/09/09 07:00:36;;;;;;;15.77;4.87;;;;;;;24.08;80.92;100828.75;5590841;31;34145;-67
2023/09/09 07:03:40;;;;;;;10.23;4.55;;;;;;;24.94;74.67;100838.25;5590816;31;33319;-68
2023/09/09 07:06:43;;;;;;;9.25;4.62;;;;;;;24.50;73.47;100835.44;5589969;31;33991;-68
2023/09/09 07:10:07;;;;;;;9.30;4.20;;;;;;;24.71;73.90;100835.75;5590733;31;33804;-68
2023/09/09 07:13:09;;;;;;;11.63;4.22;;;;;;;25.96;65.87;100835.62;5590618;31;33853;-68
2023/09/09 07:16:12;;;;;;;7.68;4.10;;;;;;;25.81;64.61;100832.78;5590718;31;34945;-68
2023/09/09 07:19:15;;;;;;;7.80;4.10;;;;;;;25.27;65.75;100837.34;5590288;31;34655;-68
2023/09/09 07:22:18;;;;;;;9.60;4.12;;;;;;;25.27;66.74;100832.72;5590986;31;33904;-69
2023/09/09 07:25:21;;;;;;;5.53;3.53;;;;;;;26.16;60.15;100841.25;5590501;31;34967;-69
2023/09/09 07:28:24;;;;;;;6.40;4.15;;;;;;;25.78;59.56;100839.56;5590478;31;34462;-66
2023/09/09 07:31:28;;;;;;;7.10;3.90;;;;;;;26.17;59.03;100832.03;5590432;31;34611;-67
2023/09/09 07:34:31;;;;;;;7.37;3.85;;;;;;;27.70;55.08;100829.06;5590139;31;33743;-68
2023/09/09 07:37:34;;;;;;;8.18;4.28;;;;;;;28.20;52.64;100838.41;5590301;31;33887;-67
2023/09/09 07:40:36;;;;;;;9.05;3.85;;;;;;;28.03;52.95;100836.72;5590178;31;33779;-68
2023/09/09 07:43:40;;;;;;;8.48;3.75;;;;;;;29.36;49.08;100846.38;5590236;31;33928;-67
2023/09/09 07:46:43;;;;;;;6.97;3.62;;;;;;;28.92;48.03;100840.78;5590039;31;33859;-67
2023/09/09 07:49:46;;;;;;;10.70;5.05;;;;;;;28.24;50.46;100834.03;5590356;31;34124;-67
2023/09/09 07:52:49;;;;;;;9.02;3.70;;;;;;;28.84;48.73;100835.91;5590467;31;34608;-68
2023/09/09 07:55:52;;;;;;;6.78;4.30;;;;;;;28.60;49.31;100832.09;5590204;31;33984;-68
2023/09/09 07:58:55;;;;;;;6.97;4.07;;;;;;;30.17;46.45;100843.13;5590214;31;34872;-68
2023/09/09 08:01:58;;;;;;;14.35;4.05;;;;;;;31.18;43.86;100844.06;5589849;31;34026;-67
2023/09/09 08:05:02;;;;;;;6.93;4.10;;;;;;;30.52;44.84;100837.34;5589479;31;33805;-68
2023/09/09 08:08:07;;;;;;;7.05;3.67;;;;;;;31.57;42.24;100836.41;5589845;31;34568;-68
2023/09/09 08:11:10;;;;;;;8.68;3.85;;;;;;;32.39;40.97;100838.72;5589364;31;33962;-67
2023/09/09 08:14:13;;;;;;;10.13;3.62;;;;;;;31.28;41.98;100844.72;5589922;31;33817;-67
2023/09/09 08:17:16;;;;;;;7.62;3.67;;;;;;;32.74;39.66;100841.63;5590075;31;34560;-68
2023/09/09 08:20:19;;;;;;;5.35;3.72;;;;;;;32.38;39.61;100845.31;5590201;31;34205;-67
2023/09/09 08:23:22;;;;;;;10.45;3.87;;;;;;;32.19;39.15;100842.62;5589847;31;34459;-69
2023/09/09 08:26:25;;;;;;;8.73;3.90;;;;;;;32.39;39.21;100839.50;5589946;31;34092;-68
2023/09/09 08:29:28;;;;;;;9.45;3.70;;;;;;;33.09;38.50;100836.53;5589831;31;34514;-68
2023/09/09 08:32:31;;;;;;;8.55;4.30;;;;;;;34.40;36.17;100838.22;5589856;31;33999;-68
2023/09/09 08:35:34;;;;;;;9.23;3.78;;;;;;;33.37;36.92;100831.84;5589977;31;34007;-68
2023/09/09 08:38:37;;;;;;;7.20;3.83;;;;;;;34.12;36.20;100833.97;5589664;31;34590;-68
2023/09/09 08:41:55;;;;;;;6.87;3.90;;;;;;;33.40;36.44;100825.75;5589615;31;34226;-68
2023/09/09 08:45:11;;;;;;;10.73;3.95;;;;;;;34.34;35.73;100828.44;5589466;31;34861;-69
2023/09/09 08:48:18;;;;;;;6.03;3.75;;;;;;;34.85;35.19;100825.16;5589764;31;33890;-68
2023/09/09 08:51:30;;;;;;;9.90;3.87;;;;;;;32.12;39.55;100821.03;5589489;31;33933;-69
2023/09/09 08:54:33;;;;;;;7.37;3.72;;;;;;;33.99;36.45;100825.44;5589296;31;33794;-69
2023/09/09 08:57:36;;;;;;;7.32;3.75;;;;;;;34.55;35.35;100826.78;5589538;31;33877;-69
2023/09/09 09:00:39;;;;;;;8.95;4.10;;;;;;;34.58;35.20;100828.09;5589550;31;33914;-68
2023/09/09 09:03:43;;;;;;;6.72;4.12;;;;;;;29.90;43.20;100820.91;5589465;31;33913;-68
2023/09/09 09:06:48;;;;;;;11.27;3.90;;;;;;;28.67;45.97;100810.78;5589204;31;34947;-68
2023/09/09 09:09:50;;;;;;;10.93;3.95;;;;;;;28.31;48.27;100815.50;5589406;31;34546;-68
2023/09/09 09:12:54;;;;;;;10.07;4.43;;;;;;;27.12;50.91;100809.25;5588997;31;33975;-68
2023/09/09 09:15:58;;;;;;;8.27;4.50;;;;;;;27.02;52.83;100811.09;5587844;31;33836;-68
2023/09/09 09:19:02;;;;;;;6.95;4.07;;;;;;;26.94;53.55;100807.00;5589399;31;34878;-68
2023/09/09 09:22:05;;;;;;;7.35;4.30;;;;;;;26.67;54.29;100798.94;5588924;31;34155;-68
2023/09/09 09:25:11;;;;;;;11.70;4.37;;;;;;;26.54;56.53;100791.22;5589208;31;33826;-68
2023/09/09 09:28:15;;;;;;;11.70;4.32;;;;;;;26.73;56.07;100797.06;5589211;31;33916;-67
2023/09/09 09:31:23;;;;;;;9.32;4.20;;;;;;;26.45;57.46;100800.16;5589534;31;33825;-68
2023/09/09 09:34:33;;;;;;;9.52;3.90;;;;;;;26.00;55.93;100795.19;5589208;31;33925;-68
2023/09/09 09:37:36;;;;;;;8.10;4.10;;;;;;;26.14;56.35;100793.66;5589253;31;33882;-67
2023/09/09 09:40:40;;;;;;;12.57;4.22;;;;;;;26.05;57.44;100798.75;5589052;31;35050;-67
2023/09/09 09:43:48;;;;;;;5.35;4.07;;;;;;;25.97;56.70;100791.06;5589248;31;33828;-68
2023/09/09 09:47:10;;;;;;;7.37;4.40;;;;;;;26.23;55.77;100792.13;5589051;31;32157;-69
2023/09/09 09:50:22;;;;;;;6.30;4.05;;;;;;;26.15;56.32;100785.22;5588640;31;33894;-68
2023/09/09 09:53:25;;;;;;;6.25;3.83;;;;;;;26.05;55.46;100784.31;5589410;31;34125;-69
2023/09/09 09:56:28;;;;;;;8.02;3.90;;;;;;;26.12;56.17;100783.03;5589048;31;33888;-68
2023/09/09 09:59:36;;;;;;;5.70;3.42;;;;;;;26.18;54.66;100787.44;5588948;31;33819;-67
2023/09/09 10:02:45;;;;;;;6.82;4.03;;;;;;;26.31;49.54;100792.47;5589149;31;33875;-67
2023/09/09 10:05:51;;;;;;;10.18;3.50;;;;;;;26.42;50.15;100787.91;5588950;31;33799;-67
2023/09/09 10:09:23;;;;;;;7.28;3.95;;;;;;;26.30;50.78;100784.56;5588800;31;33922;-67
2023/09/09 10:12:36;;;;;;;8.65;4.07;;;;;;;26.27;49.03;100783.19;5588003;31;34560;-67
2023/09/09 10:15:51;;;;;;;9.07;3.92;;;;;;;26.34;49.23;100781.03;5588886;31;33899;-67
2023/09/09 10:18:55;;;;;;;6.37;3.67;;;;;;;26.39;49.61;100785.69;5589168;31;33834;-66
2023/09/09 10:21:59;;;;;;;7.20;4.20;;;;;;;26.37;47.57;100777.00;5588748;31;35541;-68
2023/09/09 10:25:04;;;;;;;13.02;4.45;;;;;;;26.61;49.29;100785.56;5587700;31;34078;-68
2023/09/09 10:28:07;;;;;;;9.73;4.00;;;;;;;26.61;48.78;100785.56;5587814;31;33818;-68
2023/09/09 10:31:12;;;;;;;8.50;4.10;;;;;;;26.69;48.55;100776.91;5588225;31;34640;-68
2023/09/09 10:34:17;;;;;;;5.62;4.07;;;;;;;26.88;48.96;100772.66;5588850;31;34542;-68
2023/09/09 10:37:22;;;;;;;10.02;3.92;;;;;;;26.78;47.14;100776.13;5588365;31;33794;-68
2023/09/09 10:40:26;;;;;;;12.02;3.78;;;;;;;26.84;47.84;100771.53;5588382;31;33914;-68
2023/09/09 10:43:29;;;;;;;10.02;3.67;;;;;;;27.14;47.21;100768.13;5588172;31;33940;-68
2023/09/09 10:46:33;;;;;;;9.07;3.55;;;;;;;27.53;46.88;100763.91;5588213;31;33839;-68
2023/09/09 10:49:38;;;;;;;10.50;3.83;;;;;;;28.24;44.32;100763.09;5588228;31;34518;-68
2023/09/09 10:52:41;;;;;;;6.37;3.78;;;;;;;30.96;39.57;100756.88;5588136;31;34500;-68
2023/09/09 10:55:46;;;;;;;8.00;3.50;;;;;;;34.97;31.66;100750.91;5588072;31;34048;-68
2023/09/09 10:58:52;;;;;;;8.07;3.35;;;;;;;35.92;29.61;100759.25;5587388;31;34460;-68
2023/09/09 11:02:11;;;;;;;5.32;2.85;;;;;;;36.15;27.26;100758.72;5587976;31;33878;-69
2023/09/09 11:05:15;;;;;;;6.20;3.50;;;;;;;39.10;24.77;100767.72;5587285;31;34796;-69
2023/09/09 11:08:31;;;;;;;9.82;3.00;;;;;;;40.38;23.48;100761.03;5587847;31;34486;-69
2023/09/09 11:11:37;;;;;;;5.97;3.10;;;;;;;38.34;25.02;100759.28;5587816;31;33860;-69
2023/09/09 11:14:45;;;;;;;8.48;3.28;;;;;;;37.51;26.02;100754.72;5587713;31;32628;-70
2023/09/09 11:17:48;;;;;;;;;;;;;;;39.69;23.28;100751.25;5587748;31;34608;-69
2023/09/09 11:20:52;;;;;;;10.52;2.80;;;;;;;40.35;22.28;100748.69;5588220;31;34850;-70
2023/09/09 11:23:56;;;;;;;5.75;2.90;;;;;;;41.15;21.46;100742.63;5587781;31;34706;-69
2023/09/09 11:26:59;;;;;;;4.50;2.80;;;;;;;41.15;20.53;100753.78;5587489;31;35039;-70
2023/09/09 11:30:03;;;;;;;7.50;3.10;;;;;;;42.23;20.40;100746.34;5587633;31;33934;-68
2023/09/09 11:33:05;;;;;;;6.90;3.03;;;;;;;41.27;20.38;100740.88;5587548;31;34492;-68
2023/09/09 11:36:08;;;;;;;5.35;2.80;;;;;;;42.14;19.77;100743.81;5587463;31;34656;-69
2023/09/09 11:39:12;;;;;;;8.27;2.95;;;;;;;41.19;20.44;100734.38;5589886;31;34436;-69
2023/09/09 11:42:14;;;;;;;4.97;3.10;;;;;;;42.17;19.00;100731.13;5590488;31;33720;-69
2023/09/09 11:45:18;;;;;;;4.40;2.85;;;;;;;40.10;20.34;100726.94;5590509;31;33831;-70
2023/09/09 11:48:25;;;;;;;5.80;2.90;;;;;;;42.31;18.82;100729.44;5590432;31;33807;-70
2023/09/09 11:51:29;;;;;;;5.78;2.80;;;;;;;40.88;19.33;100726.91;5589552;31;33797;-68
2023/09/09 11:54:32;;;;;;;7.57;3.10;;;;;;;39.49;20.57;100718.94;5590257;31;33799;-68
2023/09/09 11:57:36;;;;;;;17.60;2.85;;;;;;;40.82;20.11;100714.44;5590189;31;34125;-69
2023/09/09 12:00:39;;;;;;;6.47;3.10;;;;;;;41.60;20.14;100719.72;5590359;31;33941;-69
2023/09/09 12:03:42;;;;;;;6.87;3.05;;;;;;;44.21;18.11;100723.06;5590521;31;34465;-70
2023/09/09 12:06:50;;;;;;;6.15;2.97;;;;;;;46.94;16.11;100719.13;5590225;31;34512;-70
2023/09/09 12:09:54;;;;;;;4.00;2.72;;;;;;;46.52;15.54;100708.78;5590342;31;34789;-68
2023/09/09 12:12:58;;;;;;;6.62;3.10;;;;;;;43.96;16.77;100701.28;5589226;31;33981;-68
2023/09/09 12:16:02;;;;;;;4.25;3.10;;;;;;;38.97;20.90;100692.00;5589844;31;34538;-69
2023/09/09 12:19:13;;;;;;;5.90;2.95;;;;;;;41.03;20.28;100701.03;5590099;31;33887;-69
2023/09/09 12:22:40;;;;;;;6.37;2.65;;;;;;;43.48;17.92;100693.97;5590065;31;34020;-70
2023/09/09 12:25:43;;;;;;;;;;;;;;;44.33;16.67;100690.03;5590431;31;33838;-70
2023/09/09 12:29:03;;;;;;;5.22;2.50;;;;;;;44.47;16.69;100692.13;5589863;31;34335;-69
2023/09/09 12:32:06;;;;;;;6.47;2.67;;;;;;;43.46;17.17;100682.38;5589760;31;33899;-70
2023/09/09 12:35:09;;;;;;;5.68;2.80;;;;;;;47.41;14.63;100698.06;5589441;31;33811;-70
2023/09/09 12:38:14;;;;;;;3.58;2.75;;;;;;;45.26;16.21;100686.59;5590003;31;34007;-70
2023/09/09 12:41:19;;;;;;;5.65;2.50;;;;;;;43.34;17.99;100677.84;5590113;31;34240;-69
2023/09/09 12:44:22;;;;;;;6.05;2.87;;;;;;;42.74;18.33;100671.50;5589839;31;33945;-70
2023/09/09 12:47:26;;;;;;;3.70;2.78;;;;;;;41.76;18.79;100669.47;5590115;31;33965;-70
2023/09/09 12:50:29;;;;;;;6.65;2.80;;;;;;;44.09;17.28;100676.63;5589082;31;34391;-69
2023/09/09 12:53:31;;;;;;;5.40;2.80;;;;;;;45.58;15.75;100674.66;5589927;31;33929;-70
2023/09/09 12:56:34;;;;;;;7.82;2.80;;;;;;;44.69;16.84;100659.50;5576172;31;33762;-70
2023/09/09 12:59:38;;;;;;;7.55;3.10;;;;;;;44.01;17.19;100661.00;5589707;31;34679;-70
2023/09/09 13:02:41;;;;;;;6.10;2.50;;;;;;;43.40;17.51;100650.37;5590295;31;33820;-70
2023/09/09 13:05:44;;;;;;;3.28;2.40;;;;;;;46.04;15.15;100661.50;5589865;31;33823;-69
2023/09/09 13:08:47;;;;;;;5.40;2.67;;;;;;;47.79;13.57;100665.28;5589597;31;33805;-70
2023/09/09 13:11:50;;;;;;;3.10;2.65;;;;;;;46.38;14.58;100658.28;5589477;31;34153;-70
2023/09/09 13:14:53;;;;;;;7.40;2.50;;;;;;;46.90;14.11;100656.56;5589702;31;33771;-70
2023/09/09 13:17:56;;;;;;;6.07;2.83;;;;;;;49.18;12.86;100660.66;5589551;31;34514;-69
2023/09/09 13:21:00;;;;;;;7.78;2.83;;;;;;;46.76;13.86;100650.97;5589554;31;33895;-69
2023/09/09 13:24:03;;;;;;;4.60;2.50;;;;;;;45.27;14.76;100650.97;5589342;31;33793;-69
2023/09/09 13:27:06;;;;;;;3.25;2.42;;;;;;;46.56;14.00;100645.03;5589581;31;34010;-69
2023/09/09 13:30:09;;;;;;;4.78;2.75;;;;;;;47.75;13.58;100636.41;5588894;31;35544;-69
2023/09/09 13:33:12;;;;;;;7.50;2.28;;;;;;;48.75;12.56;100643.50;5589365;31;33853;-70
2023/09/09 13:36:16;;;;;;;2.92;2.37;;;;;;;48.48;13.25;100633.31;5588984;31;33761;-68
2023/09/09 13:39:19;;;;;;;5.43;2.42;;;;;;;48.64;12.91;100637.16;5589401;31;35250;-70
2023/09/09 13:42:22;;;;;;;5.43;2.37;;;;;;;48.20;13.47;100632.38;5589003;31;33949;-69
2023/09/09 13:45:25;;;;;;;4.85;2.60;;;;;;;49.18;12.54;100632.47;5589366;31;34481;-69
2023/09/09 13:48:28;;;;;;;3.37;2.40;;;;;;;43.07;16.29;100620.47;5588417;31;34606;-69
2023/09/09 13:51:31;;;;;;;4.25;2.35;;;;;;;44.84;15.30;100633.97;5588508;31;33742;-69
2023/09/09 13:54:34;;;;;;;5.57;2.90;;;;;;;48.01;13.54;100632.19;5589498;31;34612;-69
2023/09/09 13:57:37;;;;;;;5.07;2.75;;;;;;;44.27;16.07;100626.44;5589084;31;33933;-69
2023/09/09 14:00:40;;;;;;;10.40;2.70;;;;;;;45.40;15.22;100627.81;5588849;31;34118;-69
2023/09/09 14:03:43;;;;;;;4.65;2.72;;;;;;;46.95;14.35;100626.06;5589123;31;33890;-69
2023/09/09 14:06:46;;;;;;;5.65;2.70;;;;;;;43.64;16.38;100619.91;5589171;31;33818;-69
2023/09/09 14:09:49;;;;;;;4.45;2.72;;;;;;;43.34;17.39;100620.00;5588914;31;33907;-68